Time,TemperatureF,DewpointF,PressureIn,WindDirection,WindDirectionDegrees,WindSpeedMPH,WindSpeedGustMPH,Humidity,HourlyPrecipIn,Conditions,Clouds,dailyrainin,SolarRadiationWatts/m^2,SoftwareType,DateUTC
2013-04-28 00:00:00,42.1,36.1,30.30,SSW,197,0.0,0.0,79,0.00,,,0.00,0,Wunderground v.1.15,2013-04-28 04:00:00,
2013-04-28 00:05:00,42.1,36.1,30.30,SSW,197,0.0,0.0,79,0.00,,,0.00,0,Wunderground v.1.15,2013-04-28 04:05:00,
2013-04-28 00:10:00,42.0,36.0,30.30,SSW,197,0.0,0.0,79,0.00,,,0.00,0,Wunderground v.1.15,2013-04-28 04:10:00,
2013-04-28 00:20:00,41.9,35.5,30.30,SSW,197,0.0,0.0,78,0.00,,,0.00,0,Wunderground v.1.15,2013-04-28 04:20:00,
2013-04-28 00:25:00,41.6,35.9,30.30,SSW,197,0.0,0.0,80,0.00,,,0.00,0,Wunderground v.1.15,2013-04-28 04:25:00,
2013-04-28 00:35:00,41.2,35.8,30.30,SSW,197,0.0,0.0,81,0.00,,,0.00,0,Wunderground v.1.15,2013-04-28 04:35:00,
2013-04-28 00:45:00,40.7,35.6,30.30,SSW,197,0.0,0.0,82,0.00,,,0.00,0,Wunderground v.1.15,2013-04-28 04:45:00,
2013-04-28 00:55:00,40.5,35.7,30.30,SSW,197,0.0,0.0,83,0.00,,,0.00,0,Wunderground v.1.15,2013-04-28 04:55:00,
2013-04-28 01:00:00,40.4,35.9,30.30,SSE,147,0.0,0.0,84,0.00,,,0.00,0,Wunderground v.1.15,2013-04-28 05:00:00,
2013-04-28 01:05:00,40.3,35.8,30.30,SSE,147,0.0,0.0,84,0.00,,,0.00,0,Wunderground v.1.15,2013-04-28 05:05:00,
2013-04-28 01:15:00,39.8,35.7,30.30,SSE,147,0.0,0.0,85,0.00,,,0.00,0,Wunderground v.1.15,2013-04-28 05:15:00,
2013-04-28 01:25:00,39.6,35.5,30.30,SSE,147,0.0,0.0,85,0.00,,,0.00,0,Wunderground v.1.15,2013-04-28 05:25:00,
2013-04-28 01:35:00,39.3,35.5,30.29,SSE,147,0.0,0.0,86,0.00,,,0.00,0,Wunderground v.1.15,2013-04-28 05:35:00,
2013-04-28 01:40:00,39.2,35.7,30.29,SSE,147,0.0,0.0,87,0.00,,,0.00,0,Wunderground v.1.15,2013-04-28 05:40:00,
2013-04-28 01:50:00,39.1,35.6,30.29,SSE,147,0.0,0.0,87,0.00,,,0.00,0,Wunderground v.1.15,2013-04-28 05:50:00,
2013-04-28 01:55:00,38.9,35.4,30.29,SSE,147,0.0,0.0,87,0.00,,,0.00,0,Wunderground v.1.15,2013-04-28 05:55:00,
2013-04-28 02:00:00,38.4,34.9,30.29,SSE,147,0.0,0.0,87,0.00,,,0.00,0,Wunderground v.1.15,2013-04-28 06:00:00,
2013-04-28 02:05:00,38.1,34.9,30.29,SSE,147,0.0,0.0,88,0.00,,,0.00,0,Wunderground v.1.15,2013-04-28 06:05:00,
2013-04-28 02:15:00,38.0,35.0,30.29,SSE,147,0.0,0.0,89,0.00,,,0.00,0,Wunderground v.1.15,2013-04-28 06:15:00,
2013-04-28 02:25:00,37.7,34.8,30.29,SSE,147,0.0,0.0,89,0.00,,,0.00,0,Wunderground v.1.15,2013-04-28 06:25:00,
2013-04-28 02:35:00,37.4,34.7,30.29,SSE,147,0.0,0.0,90,0.00,,,0.00,0,Wunderground v.1.15,2013-04-28 06:35:00,
2013-04-28 02:45:00,37.2,34.5,30.29,SSE,147,0.0,0.0,90,0.00,,,0.00,0,Wunderground v.1.15,2013-04-28 06:45:00,
2013-04-28 02:50:00,37.0,34.3,30.29,SSE,147,0.0,0.0,90,0.00,,,0.00,0,Wunderground v.1.15,2013-04-28 06:50:00,
2013-04-28 03:00:00,36.7,34.0,30.28,SSE,147,0.0,0.0,90,0.00,,,0.00,0,Wunderground v.1.15,2013-04-28 07:00:00,
2013-04-28 03:10:00,36.5,34.1,30.28,SSE,147,0.0,0.0,91,0.00,,,0.00,0,Wunderground v.1.15,2013-04-28 07:10:00,
2013-04-28 03:15:00,36.3,33.9,30.28,SSE,147,0.0,0.0,91,0.00,,,0.00,0,Wunderground v.1.15,2013-04-28 07:15:00,
2013-04-28 03:25:00,36.2,34.1,30.28,SSE,147,0.0,0.0,92,0.00,,,0.00,0,Wunderground v.1.15,2013-04-28 07:25:00,
2013-04-28 03:35:00,35.9,33.8,30.28,SSE,147,0.0,0.0,92,0.00,,,0.00,0,Wunderground v.1.15,2013-04-28 07:35:00,
2013-04-28 03:45:00,35.9,33.8,30.28,SSE,147,0.0,0.0,92,0.00,,,0.00,0,Wunderground v.1.15,2013-04-28 07:45:00,
2013-04-28 03:55:00,35.7,33.9,30.28,SSE,147,0.0,0.0,93,0.00,,,0.00,0,Wunderground v.1.15,2013-04-28 07:55:00,
2013-04-28 04:00:00,35.6,33.5,30.28,SSE,147,0.0,0.0,92,0.00,,,0.00,0,Wunderground v.1.15,2013-04-28 08:00:00,
2013-04-28 04:10:00,35.4,33.6,30.28,SSE,147,0.0,0.0,93,0.00,,,0.00,0,Wunderground v.1.15,2013-04-28 08:10:00,
2013-04-28 04:20:00,35.4,33.6,30.28,SSE,147,0.0,0.0,93,0.00,,,0.00,0,Wunderground v.1.15,2013-04-28 08:20:00,
2013-04-28 04:30:00,34.8,33.0,30.28,SSE,147,0.0,0.0,93,0.00,,,0.00,0,Wunderground v.1.15,2013-04-28 08:30:00,
2013-04-28 04:40:00,34.8,33.0,30.28,SSE,147,0.0,0.0,93,0.00,,,0.00,0,Wunderground v.1.15,2013-04-28 08:40:00,
2013-04-28 04:45:00,34.7,32.9,30.28,SSE,147,0.0,0.0,93,0.00,,,0.00,0,Wunderground v.1.15,2013-04-28 08:45:00,
2013-04-28 04:55:00,34.5,32.7,30.28,SSE,147,0.0,0.0,93,0.00,,,0.00,0,Wunderground v.1.15,2013-04-28 08:55:00,
2013-04-28 05:00:00,34.5,32.7,30.28,SSE,147,0.0,0.0,93,0.00,,,0.00,0,Wunderground v.1.15,2013-04-28 09:00:00,
2013-04-28 05:10:00,34.4,32.9,30.28,SSE,147,0.0,0.0,94,0.00,,,0.00,0,Wunderground v.1.15,2013-04-28 09:10:00,
2013-04-28 05:20:00,34.2,32.7,30.28,SSE,147,0.0,0.0,94,0.00,,,0.00,0,Wunderground v.1.15,2013-04-28 09:20:00,
2013-04-28 05:30:00,33.8,32.3,30.28,SSE,147,0.0,0.0,94,0.00,,,0.00,0,Wunderground v.1.15,2013-04-28 09:30:00,
2013-04-28 05:40:00,33.8,32.3,30.28,SSE,147,0.0,0.0,94,0.00,,,0.00,0,Wunderground v.1.15,2013-04-28 09:40:00,
2013-04-28 05:50:00,33.8,32.3,30.27,SSE,147,0.0,0.0,94,0.00,,,0.00,5,Wunderground v.1.15,2013-04-28 09:50:00,
2013-04-28 06:00:00,33.8,32.3,30.28,SSE,147,0.0,0.0,94,0.00,,,0.00,11,Wunderground v.1.15,2013-04-28 10:00:00,
2013-04-28 06:10:00,33.7,32.2,30.29,SSE,147,0.0,0.0,94,0.00,,,0.00,16,Wunderground v.1.15,2013-04-28 10:10:00,
2013-04-28 06:15:00,33.9,32.4,30.29,SSE,147,0.0,0.0,94,0.00,,,0.00,18,Wunderground v.1.15,2013-04-28 10:15:00,
2013-04-28 06:25:00,34.0,32.5,30.29,SSE,147,0.0,0.0,94,0.00,,,0.00,23,Wunderground v.1.15,2013-04-28 10:25:00,
2013-04-28 06:35:00,34.4,33.1,30.29,SSE,147,0.0,0.0,95,0.00,,,0.00,26,Wunderground v.1.15,2013-04-28 10:35:00,
2013-04-28 06:40:00,34.6,33.1,30.29,SSE,147,0.0,0.0,94,0.00,,,0.00,28,Wunderground v.1.15,2013-04-28 10:40:00,
2013-04-28 06:50:00,35.4,34.1,30.29,SSE,147,0.0,0.0,95,0.00,,,0.00,32,Wunderground v.1.15,2013-04-28 10:50:00,
2013-04-28 07:00:00,36.5,35.2,30.29,SSE,147,0.0,0.0,95,0.00,,,0.00,35,Wunderground v.1.15,2013-04-28 11:00:00,
2013-04-28 07:10:00,37.5,36.2,30.29,SSE,147,0.0,0.0,95,0.00,,,0.00,39,Wunderground v.1.15,2013-04-28 11:10:00,
2013-04-28 07:20:00,38.5,37.2,30.30,SSE,147,0.0,0.0,95,0.00,,,0.00,39,Wunderground v.1.15,2013-04-28 11:20:00,
2013-04-28 07:30:00,39.6,38.3,30.30,SSE,147,0.0,0.0,95,0.00,,,0.00,42,Wunderground v.1.15,2013-04-28 11:30:00,
2013-04-28 07:35:00,40.1,38.8,30.30,SSE,147,0.0,0.0,95,0.00,,,0.00,63,Wunderground v.1.15,2013-04-28 11:35:00,
2013-04-28 07:45:00,42.0,40.4,30.31,SSE,147,0.0,0.0,94,0.00,,,0.00,114,Wunderground v.1.15,2013-04-28 11:45:00,
2013-04-28 07:55:00,43.5,40.8,30.31,SSE,147,0.0,0.0,90,0.00,,,0.00,125,Wunderground v.1.15,2013-04-28 11:55:00,
2013-04-28 08:00:00,44.5,40.9,30.31,SSE,147,0.0,0.0,87,0.00,,,0.00,130,Wunderground v.1.15,2013-04-28 12:00:00,
2013-04-28 08:10:00,45.9,40.4,30.31,SSE,147,0.0,1.0,81,0.00,,,0.00,302,Wunderground v.1.15,2013-04-28 12:10:00,
2013-04-28 08:20:00,47.1,40.9,30.31,SSE,155,1.0,1.0,79,0.00,,,0.00,299,Wunderground v.1.15,2013-04-28 12:20:00,
2013-04-28 08:30:00,48.8,41.2,30.32,NW,311,1.0,5.0,75,0.00,,,0.00,315,Wunderground v.1.15,2013-04-28 12:30:00,
2013-04-28 08:40:00,49.1,40.8,30.32,NW,306,2.0,2.0,73,0.00,,,0.00,417,Wunderground v.1.15,2013-04-28 12:40:00,
2013-04-28 08:45:00,49.5,40.8,30.32,NW,306,1.0,2.0,72,0.00,,,0.00,443,Wunderground v.1.15,2013-04-28 12:45:00,
2013-04-28 08:55:00,50.8,41.0,30.32,WNW,303,0.0,0.0,69,0.00,,,0.00,373,Wunderground v.1.15,2013-04-28 12:55:00,
2013-04-28 09:00:00,51.3,41.5,30.31,WNW,303,0.0,0.0,69,0.00,,,0.00,318,Wunderground v.1.15,2013-04-28 13:00:00,
2013-04-28 09:10:00,52.5,41.9,30.32,West,263,0.0,0.0,67,0.00,,,0.00,513,Wunderground v.1.15,2013-04-28 13:10:00,
2013-04-28 09:15:00,53.3,42.2,30.31,East,100,0.0,0.0,66,0.00,,,0.00,555,Wunderground v.1.15,2013-04-28 13:15:00,
2013-04-28 09:25:00,53.6,42.1,30.32,SSW,203,1.0,1.0,65,0.00,,,0.00,599,Wunderground v.1.15,2013-04-28 13:25:00,
2013-04-28 09:35:00,54.6,41.0,30.32,SW,236,1.0,1.0,60,0.00,,,0.00,642,Wunderground v.1.15,2013-04-28 13:35:00,
2013-04-28 09:45:00,54.9,41.7,30.32,SW,219,1.0,3.0,61,0.00,,,0.00,686,Wunderground v.1.15,2013-04-28 13:45:00,
2013-04-28 09:55:00,55.9,41.8,30.31,NW,326,1.0,4.0,59,0.00,,,0.00,717,Wunderground v.1.15,2013-04-28 13:55:00,
2013-04-28 10:00:00,56.5,43.2,30.31,WNW,289,2.0,2.0,61,0.00,,,0.00,731,Wunderground v.1.15,2013-04-28 14:00:00,
2013-04-28 10:10:00,58.0,42.4,30.31,South,181,1.0,2.0,56,0.00,,,0.00,756,Wunderground v.1.15,2013-04-28 14:10:00,
2013-04-28 10:20:00,57.5,41.4,30.31,SSW,192,1.0,2.0,55,0.00,,,0.00,779,Wunderground v.1.15,2013-04-28 14:20:00,
2013-04-28 10:30:00,59.4,42.3,30.31,SSW,198,2.0,2.0,53,0.00,,,0.00,800,Wunderground v.1.15,2013-04-28 14:30:00,
2013-04-28 10:35:00,60.3,43.1,30.31,SSE,157,2.0,4.0,53,0.00,,,0.00,809,Wunderground v.1.15,2013-04-28 14:35:00,
2013-04-28 10:45:00,61.2,41.3,30.31,SE,139,3.0,3.0,48,0.00,,,0.00,830,Wunderground v.1.15,2013-04-28 14:45:00,
2013-04-28 10:50:00,61.5,44.2,30.30,SW,221,2.0,5.0,53,0.00,,,0.00,840,Wunderground v.1.15,2013-04-28 14:50:00,
2013-04-28 11:00:00,62.7,42.2,30.29,West,281,2.0,3.0,47,0.00,,,0.00,861,Wunderground v.1.15,2013-04-28 15:00:00,
2013-04-28 11:10:00,62.3,40.1,30.29,SSE,159,3.0,3.0,44,0.00,,,0.00,870,Wunderground v.1.15,2013-04-28 15:10:00,
2013-04-28 11:20:00,62.7,42.7,30.29,SSW,202,4.0,6.0,48,0.00,,,0.00,886,Wunderground v.1.15,2013-04-28 15:20:00,
2013-04-28 11:25:00,63.8,41.5,30.29,South,188,3.0,6.0,44,0.00,,,0.00,891,Wunderground v.1.15,2013-04-28 15:25:00,
2013-04-28 11:35:00,64.1,40.5,30.28,WSW,240,2.0,5.0,42,0.00,,,0.00,905,Wunderground v.1.15,2013-04-28 15:35:00,
2013-04-28 11:45:00,64.2,40.6,30.28,NW,325,3.0,3.0,42,0.00,,,0.00,919,Wunderground v.1.15,2013-04-28 15:45:00,
2013-04-28 11:55:00,64.1,39.3,30.28,SSW,192,2.0,5.0,40,0.00,,,0.00,926,Wunderground v.1.15,2013-04-28 15:55:00,
2013-04-28 12:00:00,64.1,39.3,30.28,South,171,3.0,3.0,40,0.00,,,0.00,930,Wunderground v.1.15,2013-04-28 16:00:00,
2013-04-28 12:10:00,65.3,42.8,30.27,SSE,167,3.0,3.0,44,0.00,,,0.00,939,Wunderground v.1.15,2013-04-28 16:10:00,
2013-04-28 12:20:00,65.1,38.8,30.27,SE,140,5.0,5.0,38,0.00,,,0.00,944,Wunderground v.1.15,2013-04-28 16:20:00,
2013-04-28 12:30:00,66.2,41.2,30.26,ESE,123,3.0,4.0,40,0.00,,,0.00,947,Wunderground v.1.15,2013-04-28 16:30:00,
2013-04-28 12:35:00,66.1,39.7,30.26,SSE,150,4.0,4.0,38,0.00,,,0.00,949,Wunderground v.1.15,2013-04-28 16:35:00,
2013-04-28 12:45:00,66.4,41.3,30.26,West,266,1.0,3.0,40,0.00,,,0.00,947,Wunderground v.1.15,2013-04-28 16:45:00,
2013-04-28 12:55:00,66.7,39.6,30.26,SSE,166,2.0,3.0,37,0.00,,,0.00,946,Wunderground v.1.15,2013-04-28 16:55:00,
2013-04-28 13:00:00,66.2,39.1,30.26,SW,223,2.0,3.0,37,0.00,,,0.00,944,Wunderground v.1.15,2013-04-28 17:00:00,
2013-04-28 13:10:00,67.4,40.9,30.25,SSW,212,4.0,4.0,38,0.00,,,0.00,946,Wunderground v.1.15,2013-04-28 17:10:00,
2013-04-28 13:20:00,67.6,39.0,30.25,SE,128,3.0,3.0,35,0.00,,,0.00,893,Wunderground v.1.15,2013-04-28 17:20:00,
2013-04-28 13:30:00,67.9,39.9,30.24,WNW,294,2.0,11.0,36,0.00,,,0.00,831,Wunderground v.1.15,2013-04-28 17:30:00,
2013-04-28 13:40:00,68.3,41.0,30.24,ESE,119,5.0,5.0,37,0.00,,,0.00,768,Wunderground v.1.15,2013-04-28 17:40:00,
2013-04-28 13:45:00,67.9,37.7,30.24,NE,49,5.0,5.0,33,0.00,,,0.00,745,Wunderground v.1.15,2013-04-28 17:45:00,
2013-04-28 13:55:00,68.0,40.0,30.24,ENE,57,2.0,4.0,36,0.00,,,0.00,738,Wunderground v.1.15,2013-04-28 17:55:00,
2013-04-28 14:00:00,68.0,40.0,30.23,SE,143,1.0,6.0,36,0.00,,,0.00,747,Wunderground v.1.15,2013-04-28 18:00:00,
2013-04-28 14:10:00,68.4,38.2,30.23,South,184,5.0,7.0,33,0.00,,,0.00,791,Wunderground v.1.15,2013-04-28 18:10:00,
2013-04-28 14:20:00,68.3,37.3,30.23,East,90,3.0,3.0,32,0.00,,,0.00,844,Wunderground v.1.15,2013-04-28 18:20:00,
2013-04-28 14:30:00,69.2,39.6,30.22,NW,306,3.0,5.0,34,0.00,,,0.00,849,Wunderground v.1.15,2013-04-28 18:30:00,
2013-04-28 14:40:00,69.3,40.5,30.21,SE,143,4.0,4.0,35,0.00,,,0.00,840,Wunderground v.1.15,2013-04-28 18:40:00,
2013-04-28 14:50:00,69.6,40.7,30.21,South,190,6.0,7.0,35,0.00,,,0.00,826,Wunderground v.1.15,2013-04-28 18:50:00,
2013-04-28 15:00:00,69.6,37.6,30.20,South,169,3.0,3.0,31,0.00,,,0.00,807,Wunderground v.1.15,2013-04-28 19:00:00,
2013-04-28 15:05:00,69.2,39.6,30.21,SSE,164,2.0,3.0,34,0.00,,,0.00,796,Wunderground v.1.15,2013-04-28 19:05:00,
2013-04-28 15:15:00,70.0,39.6,30.20,SSE,163,3.0,4.0,33,0.00,,,0.00,290,Wunderground v.1.15,2013-04-28 19:15:00,
2013-04-28 15:25:00,69.2,40.4,30.19,ESE,105,4.0,5.0,35,0.00,,,0.00,752,Wunderground v.1.15,2013-04-28 19:25:00,
2013-04-28 15:30:00,69.2,39.6,30.19,South,177,5.0,6.0,34,0.00,,,0.00,731,Wunderground v.1.15,2013-04-28 19:30:00,
2013-04-28 15:40:00,69.0,39.4,30.19,SE,132,5.0,5.0,34,0.00,,,0.00,707,Wunderground v.1.15,2013-04-28 19:40:00,
2013-04-28 15:50:00,68.9,40.8,30.19,ESE,119,6.0,7.0,36,0.00,,,0.00,654,Wunderground v.1.15,2013-04-28 19:50:00,
2013-04-28 15:55:00,68.7,38.4,30.19,SE,126,7.0,7.0,33,0.00,,,0.00,624,Wunderground v.1.15,2013-04-28 19:55:00,
2013-04-28 16:00:00,68.5,39.8,30.19,SE,129,6.0,6.0,35,0.00,,,0.00,624,Wunderground v.1.15,2013-04-28 20:00:00,
2013-04-28 16:10:00,68.4,38.9,30.18,SE,140,5.0,10.0,34,0.00,,,0.00,591,Wunderground v.1.15,2013-04-28 20:10:00,
2013-04-28 16:20:00,68.5,40.5,30.19,SSE,162,5.0,5.0,36,0.00,,,0.00,578,Wunderground v.1.15,2013-04-28 20:20:00,
2013-04-28 16:30:00,68.3,40.3,30.18,SE,134,5.0,5.0,36,0.00,,,0.00,571,Wunderground v.1.15,2013-04-28 20:30:00,
2013-04-28 16:40:00,67.8,40.6,30.18,South,176,5.0,5.0,37,0.00,,,0.00,534,Wunderground v.1.15,2013-04-28 20:40:00,
2013-04-28 16:50:00,67.3,39.4,30.18,ESE,122,5.0,5.0,36,0.00,,,0.00,494,Wunderground v.1.15,2013-04-28 20:50:00,
2013-04-28 17:00:00,67.2,40.7,30.18,ESE,104,5.0,5.0,38,0.00,,,0.00,464,Wunderground v.1.15,2013-04-28 21:00:00,
2013-04-28 17:05:00,66.5,40.1,30.18,SE,140,6.0,6.0,38,0.00,,,0.00,448,Wunderground v.1.15,2013-04-28 21:05:00,
2013-04-28 17:15:00,66.0,39.7,30.19,SE,136,5.0,5.0,38,0.00,,,0.00,413,Wunderground v.1.15,2013-04-28 21:15:00,
2013-04-28 17:20:00,65.5,40.5,30.19,SSE,167,7.0,8.0,40,0.00,,,0.00,394,Wunderground v.1.15,2013-04-28 21:20:00,
2013-04-28 17:30:00,65.2,40.9,30.19,ESE,120,6.0,6.0,41,0.00,,,0.00,357,Wunderground v.1.15,2013-04-28 21:30:00,
2013-04-28 17:35:00,65.3,40.3,30.19,SE,132,5.0,9.0,40,0.00,,,0.00,130,Wunderground v.1.15,2013-04-28 21:35:00,
2013-04-28 17:45:00,64.8,40.5,30.19,ESE,117,5.0,5.0,41,0.00,,,0.00,93,Wunderground v.1.15,2013-04-28 21:45:00,
2013-04-28 17:55:00,64.3,40.7,30.19,East,94,5.0,5.0,42,0.00,,,0.00,70,Wunderground v.1.15,2013-04-28 21:55:00,
2013-04-28 18:00:00,64.0,40.4,30.19,SSE,153,5.0,5.0,42,0.00,,,0.00,86,Wunderground v.1.15,2013-04-28 22:00:00,
2013-04-28 18:10:00,63.5,40.0,30.19,SE,128,5.0,5.0,42,0.00,,,0.00,67,Wunderground v.1.15,2013-04-28 22:10:00,
2013-04-28 18:20:00,63.2,40.9,30.19,SSE,151,4.0,4.0,44,0.00,,,0.00,109,Wunderground v.1.15,2013-04-28 22:20:00,
2013-04-28 18:30:00,62.7,40.5,30.19,SE,136,3.0,4.0,44,0.00,,,0.00,58,Wunderground v.1.15,2013-04-28 22:30:00,
2013-04-28 18:40:00,62.0,40.4,30.19,ESE,120,4.0,4.0,45,0.00,,,0.00,51,Wunderground v.1.15,2013-04-28 22:40:00,
2013-04-28 18:50:00,61.4,39.9,30.19,ESE,119,3.0,3.0,45,0.00,,,0.00,37,Wunderground v.1.15,2013-04-28 22:50:00,
2013-04-28 19:00:00,60.6,39.7,30.19,East,82,3.0,3.0,46,0.00,,,0.00,26,Wunderground v.1.15,2013-04-28 23:00:00,
2013-04-28 19:10:00,59.9,39.6,30.19,East,91,2.0,3.0,47,0.00,,,0.00,23,Wunderground v.1.15,2013-04-28 23:10:00,
2013-04-28 19:15:00,59.7,40.5,30.19,East,88,3.0,3.0,49,0.00,,,0.00,21,Wunderground v.1.15,2013-04-28 23:15:00,
2013-04-28 19:25:00,58.9,39.2,30.19,East,93,3.0,3.0,48,0.00,,,0.00,14,Wunderground v.1.15,2013-04-28 23:25:00,
2013-04-28 19:35:00,58.4,39.3,30.19,ENE,71,2.0,3.0,49,0.00,,,0.00,5,Wunderground v.1.15,2013-04-28 23:35:00,
2013-04-28 19:40:00,57.8,39.8,30.19,East,94,1.0,1.0,51,0.00,,,0.00,0,Wunderground v.1.15,2013-04-28 23:40:00,
2013-04-28 19:50:00,56.9,39.9,30.19,East,90,1.0,1.0,53,0.00,,,0.00,0,Wunderground v.1.15,2013-04-28 23:50:00,
2013-04-28 20:00:00,56.2,39.3,30.19,East,96,1.0,3.0,53,0.00,,,0.00,0,Wunderground v.1.15,2013-04-29 00:00:00,
2013-04-28 20:10:00,56.4,39.5,30.19,ESE,115,1.0,1.0,53,0.00,,,0.00,0,Wunderground v.1.15,2013-04-29 00:10:00,
2013-04-28 20:20:00,55.1,38.7,30.19,East,92,0.0,1.0,54,0.00,,,0.00,0,Wunderground v.1.15,2013-04-29 00:20:00,
2013-04-28 20:30:00,54.0,39.1,30.19,East,92,0.0,0.0,57,0.00,,,0.00,0,Wunderground v.1.15,2013-04-29 00:30:00,
2013-04-28 20:35:00,53.7,38.8,30.19,East,96,0.0,0.0,57,0.00,,,0.00,0,Wunderground v.1.15,2013-04-29 00:35:00,
2013-04-28 20:45:00,52.1,39.5,30.20,East,96,0.0,0.0,62,0.00,,,0.00,0,Wunderground v.1.15,2013-04-29 00:45:00,
2013-04-28 20:55:00,51.0,39.2,30.20,East,96,0.0,0.0,64,0.00,,,0.00,0,Wunderground v.1.15,2013-04-29 00:55:00,
2013-04-28 21:00:00,50.5,39.2,30.21,East,96,0.0,0.0,65,0.00,,,0.00,0,Wunderground v.1.15,2013-04-29 01:00:00,
2013-04-28 21:10:00,52.7,36.5,30.21,South,190,1.0,1.0,54,0.00,,,0.00,0,Wunderground v.1.15,2013-04-29 01:10:00,
2013-04-28 21:20:00,54.7,35.9,30.22,South,191,1.0,1.0,49,0.00,,,0.00,0,Wunderground v.1.15,2013-04-29 01:20:00,
2013-04-28 21:30:00,55.0,34.0,30.22,SSE,163,2.0,2.0,45,0.00,,,0.00,0,Wunderground v.1.15,2013-04-29 01:30:00,
2013-04-28 21:35:00,55.0,34.0,30.22,South,180,3.0,3.0,45,0.00,,,0.00,0,Wunderground v.1.15,2013-04-29 01:35:00,
2013-04-28 21:45:00,54.9,33.9,30.22,SSE,161,2.0,3.0,45,0.00,,,0.00,0,Wunderground v.1.15,2013-04-29 01:45:00,
2013-04-28 21:55:00,54.6,33.7,30.22,South,184,2.0,4.0,45,0.00,,,0.00,0,Wunderground v.1.15,2013-04-29 01:55:00,
2013-04-28 22:00:00,54.3,33.4,30.22,SSE,167,2.0,2.0,45,0.00,,,0.00,0,Wunderground v.1.15,2013-04-29 02:00:00,
2013-04-28 22:10:00,53.5,33.7,30.22,SE,135,1.0,1.0,47,0.00,,,0.00,0,Wunderground v.1.15,2013-04-29 02:10:00,
2013-04-28 22:20:00,53.4,33.7,30.22,South,181,2.0,2.0,47,0.00,,,0.00,0,Wunderground v.1.15,2013-04-29 02:20:00,
2013-04-28 22:30:00,53.1,33.4,30.23,South,181,1.0,1.0,47,0.00,,,0.00,0,Wunderground v.1.15,2013-04-29 02:30:00,
2013-04-28 22:40:00,52.7,33.0,30.23,South,175,1.0,1.0,47,0.00,,,0.00,0,Wunderground v.1.15,2013-04-29 02:40:00,
2013-04-28 22:50:00,51.9,33.3,30.22,South,176,0.0,0.0,49,0.00,,,0.00,0,Wunderground v.1.15,2013-04-29 02:50:00,
2013-04-28 23:00:00,50.1,34.5,30.23,SSE,161,0.0,0.0,55,0.00,,,0.00,0,Wunderground v.1.15,2013-04-29 03:00:00,
2013-04-28 23:10:00,48.9,34.8,30.23,SSE,161,0.0,0.0,58,0.00,,,0.00,0,Wunderground v.1.15,2013-04-29 03:10:00,
2013-04-28 23:15:00,48.4,34.7,30.23,SSE,148,0.0,0.0,59,0.00,,,0.00,0,Wunderground v.1.15,2013-04-29 03:15:00,
2013-04-28 23:25:00,48.6,34.5,30.23,South,176,0.0,0.0,58,0.00,,,0.00,0,Wunderground v.1.15,2013-04-29 03:25:00,
2013-04-28 23:35:00,47.6,34.4,30.23,South,176,0.0,0.0,60,0.00,,,0.00,0,Wunderground v.1.15,2013-04-29 03:35:00,
2013-04-28 23:45:00,47.4,34.2,30.23,SE,144,0.0,0.0,60,0.00,,,0.00,0,Wunderground v.1.15,2013-04-29 03:45:00,
2013-04-28 23:55:00,46.8,34.5,30.24,SE,144,0.0,1.0,62,0.00,,,0.00,0,Wunderground v.1.15,2013-04-29 03:55:00,